sensor_id;sensor_type;location;lat;lon;timestamp;pressure;altitude;pressure_sealevel;temperature;humidity
61039;BME280;46919;45.816;3.104;2023-02-24T00:01:36;97154.66;;;7.67;100.00
61039;BME280;46919;45.816;3.104;2023-02-24T00:04:09;97150.13;;;7.68;100.00
61039;BME280;46919;45.816;3.104;2023-02-24T00:06:38;97140.97;;;7.69;100.00
61039;BME280;46919;45.816;3.104;2023-02-24T00:09:05;97137.63;;;7.73;100.00
61039;BME280;46919;45.816;3.104;2023-02-24T00:11:33;97137.16;;;7.76;100.00
61039;BME280;46919;45.816;3.104;2023-02-24T00:13:59;97140.00;;;7.82;100.00
61039;BME280;46919;45.816;3.104;2023-02-24T00:16:24;97136.03;;;7.84;100.00
61039;BME280;46919;45.816;3.104;2023-02-24T00:18:51;97136.63;;;7.86;100.00
61039;BME280;46919;45.816;3.104;2023-02-24T00:21:16;97132.69;;;7.89;100.00
61039;BME280;46919;45.816;3.104;2023-02-24T00:23:44;97133.28;;;7.91;100.00
61039;BME280;46919;45.816;3.104;2023-02-24T00:26:12;97139.84;;;7.95;100.00
61039;BME280;46919;45.816;3.104;2023-02-24T00:28:39;97134.84;;;7.98;100.00
61039;BME280;46919;45.816;3.104;2023-02-24T00:31:06;97131.91;;;8.00;100.00
61039;BME280;46919;45.816;3.104;2023-02-24T00:33:33;97135.50;;;7.94;100.00
61039;BME280;46919;45.816;3.104;2023-02-24T00:36:07;97131.66;;;7.90;100.00
61039;BME280;46919;45.816;3.104;2023-02-24T00:38:35;97121.78;;;7.84;100.00
61039;BME280;46919;45.816;3.104;2023-02-24T00:41:07;97124.31;;;7.78;100.00
61039;BME280;46919;45.816;3.104;2023-02-24T00:43:33;97119.59;;;7.74;100.00
61039;BME280;46919;45.816;3.104;2023-02-24T00:46:02;97119.47;;;7.69;100.00
61039;BME280;46919;45.816;3.104;2023-02-24T00:48:38;97117.44;;;7.64;100.00
61039;BME280;46919;45.816;3.104;2023-02-24T00:51:09;97110.22;;;7.65;100.00
61039;BME280;46919;45.816;3.104;2023-02-24T00:53:36;97117.91;;;7.61;100.00
61039;BME280;46919;45.816;3.104;2023-02-24T00:56:05;97106.78;;;7.57;100.00
61039;BME280;46919;45.816;3.104;2023-02-24T00:58:34;97101.97;;;7.59;100.00
61039;BME280;46919;45.816;3.104;2023-02-24T01:01:00;97092.28;;;7.58;100.00
61039;BME280;46919;45.816;3.104;2023-02-24T01:03:27;97093.91;;;7.59;100.00
61039;BME280;46919;45.816;3.104;2023-02-24T01:05:52;97087.72;;;7.59;100.00
61039;BME280;46919;45.816;3.104;2023-02-24T01:08:18;97089.81;;;7.57;100.00
61039;BME280;46919;45.816;3.104;2023-02-24T01:10:59;97078.84;;;7.58;100.00
61039;BME280;46919;45.816;3.104;2023-02-24T01:13:44;97080.91;;;7.56;100.00
61039;BME280;46919;45.816;3.104;2023-02-24T01:16:10;97081.22;;;7.48;100.00
61039;BME280;46919;45.816;3.104;2023-02-24T01:18:43;97086.91;;;7.40;100.00
61039;BME280;46919;45.816;3.104;2023-02-24T01:21:10;97090.28;;;7.35;100.00
61039;BME280;46919;45.816;3.104;2023-02-24T01:23:37;97091.94;;;7.36;100.00
61039;BME280;46919;45.816;3.104;2023-02-24T01:26:02;97088.78;;;7.39;100.00
61039;BME280;46919;45.816;3.104;2023-02-24T01:28:28;97098.69;;;7.39;100.00
61039;BME280;46919;45.816;3.104;2023-02-24T01:30:54;97096.22;;;7.37;100.00
61039;BME280;46919;45.816;3.104;2023-02-24T01:33:20;97099.78;;;7.38;100.00
61039;BME280;46919;45.816;3.104;2023-02-24T01:35:46;97088.56;;;7.41;100.00
61039;BME280;46919;45.816;3.104;2023-02-24T01:38:12;97080.94;;;7.38;100.00
61039;BME280;46919;45.816;3.104;2023-02-24T01:40:38;97076.69;;;7.30;100.00
61039;BME280;46919;45.816;3.104;2023-02-24T01:43:05;97077.72;;;7.29;100.00
61039;BME280;46919;45.816;3.104;2023-02-24T01:45:35;97068.31;;;7.20;100.00
61039;BME280;46919;45.816;3.104;2023-02-24T01:48:08;97065.09;;;7.11;100.00
61039;BME280;46919;45.816;3.104;2023-02-24T01:50:35;97061.88;;;7.02;100.00
61039;BME280;46919;45.816;3.104;2023-02-24T01:53:04;97054.56;;;6.91;100.00
61039;BME280;46919;45.816;3.104;2023-02-24T01:55:43;97056.31;;;6.79;100.00
61039;BME280;46919;45.816;3.104;2023-02-24T01:58:31;97048.63;;;6.64;100.00
61039;BME280;46919;45.816;3.104;2023-02-24T02:00:57;97042.09;;;6.53;100.00
61039;BME280;46919;45.816;3.104;2023-02-24T02:03:35;97033.16;;;6.34;100.00
61039;BME280;46919;45.816;3.104;2023-02-24T02:06:04;97040.25;;;6.28;100.00
61039;BME280;46919;45.816;3.104;2023-02-24T02:08:31;97038.59;;;6.27;100.00
61039;BME280;46919;45.816;3.104;2023-02-24T02:11:01;97042.38;;;6.20;100.00
61039;BME280;46919;45.816;3.104;2023-02-24T02:13:27;97037.91;;;6.07;100.00
61039;BME280;46919;45.816;3.104;2023-02-24T02:16:10;97039.00;;;5.92;100.00
61039;BME280;46919;45.816;3.104;2023-02-24T02:18:54;97040.91;;;5.85;100.00
61039;BME280;46919;45.816;3.104;2023-02-24T02:21:42;97042.56;;;5.86;100.00
61039;BME280;46919;45.816;3.104;2023-02-24T02:24:25;97030.84;;;5.80;100.00
61039;BME280;46919;45.816;3.104;2023-02-24T02:27:13;97039.53;;;5.76;100.00
61039;BME280;46919;45.816;3.104;2023-02-24T02:35:55;97031.53;;;5.62;100.00
61039;BME280;46919;45.816;3.104;2023-02-24T02:38:21;97021.88;;;5.61;100.00
61039;BME280;46919;45.816;3.104;2023-02-24T02:44:09;97020.50;;;5.45;100.00
61039;BME280;46919;45.816;3.104;2023-02-24T02:46:41;97017.66;;;5.34;100.00
61039;BME280;46919;45.816;3.104;2023-02-24T02:49:18;97012.56;;;5.25;100.00
61039;BME280;46919;45.816;3.104;2023-02-24T02:51:51;97014.00;;;5.21;100.00
61039;BME280;46919;45.816;3.104;2023-02-24T02:54:28;97019.19;;;5.16;100.00
61039;BME280;46919;45.816;3.104;2023-02-24T02:57:03;97025.97;;;5.19;100.00
61039;BME280;46919;45.816;3.104;2023-02-24T02:59:31;97029.66;;;5.24;100.00
61039;BME280;46919;45.816;3.104;2023-02-24T03:02:00;97017.91;;;5.25;100.00
61039;BME280;46919;45.816;3.104;2023-02-24T03:04:43;97024.94;;;5.20;100.00
61039;BME280;46919;45.816;3.104;2023-02-24T03:07:12;97016.47;;;5.23;100.00
61039;BME280;46919;45.816;3.104;2023-02-24T03:09:41;97009.06;;;5.25;100.00
61039;BME280;46919;45.816;3.104;2023-02-24T03:12:12;97020.84;;;5.17;100.00
61039;BME280;46919;45.816;3.104;2023-02-24T03:14:47;97023.94;;;5.14;100.00
61039;BME280;46919;45.816;3.104;2023-02-24T03:17:23;97010.97;;;5.11;100.00
61039;BME280;46919;45.816;3.104;2023-02-24T03:19:54;97006.63;;;5.10;100.00
61039;BME280;46919;45.816;3.104;2023-02-24T03:22:34;97000.00;;;5.19;100.00
61039;BME280;46919;45.816;3.104;2023-02-24T03:25:04;97006.22;;;5.13;100.00
61039;BME280;46919;45.816;3.104;2023-02-24T03:27:46;96999.19;;;5.12;100.00
61039;BME280;46919;45.816;3.104;2023-02-24T03:30:21;96993.66;;;5.07;100.00
61039;BME280;46919;45.816;3.104;2023-02-24T03:32:51;96993.06;;;5.05;100.00
61039;BME280;46919;45.816;3.104;2023-02-24T03:35:26;96993.06;;;5.05;100.00
61039;BME280;46919;45.816;3.104;2023-02-24T03:37:54;97006.44;;;5.05;100.00
61039;BME280;46919;45.816;3.104;2023-02-24T03:40:22;96995.91;;;5.10;100.00
61039;BME280;46919;45.816;3.104;2023-02-24T03:43:12;96998.38;;;5.12;100.00
61039;BME280;46919;45.816;3.104;2023-02-24T03:45:43;96993.25;;;5.10;100.00
61039;BME280;46919;45.816;3.104;2023-02-24T03:48:10;96987.47;;;5.13;100.00
61039;BME280;46919;45.816;3.104;2023-02-24T03:50:38;96990.75;;;5.15;100.00
61039;BME280;46919;45.816;3.104;2023-02-24T03:53:30;96988.06;;;5.15;100.00
61039;BME280;46919;45.816;3.104;2023-02-24T03:56:20;96986.66;;;5.13;100.00
61039;BME280;46919;45.816;3.104;2023-02-24T04:01:54;96984.22;;;5.04;100.00
61039;BME280;46919;45.816;3.104;2023-02-24T04:06:53;96988.13;;;5.02;100.00
61039;BME280;46919;45.816;3.104;2023-02-24T04:12:32;97002.97;;;5.04;100.00
61039;BME280;46919;45.816;3.104;2023-02-24T04:15:07;96997.16;;;5.14;100.00
61039;BME280;46919;45.816;3.104;2023-02-24T04:17:52;96986.03;;;5.17;100.00
61039;BME280;46919;45.816;3.104;2023-02-24T04:20:21;96987.22;;;5.21;100.00
61039;BME280;46919;45.816;3.104;2023-02-24T04:22:52;96987.59;;;5.32;100.00
61039;BME280;46919;45.816;3.104;2023-02-24T04:25:21;96987.78;;;5.37;100.00
61039;BME280;46919;45.816;3.104;2023-02-24T04:27:51;96978.50;;;5.39;100.00
61039;BME280;46919;45.816;3.104;2023-02-24T04:30:18;96978.06;;;5.42;100.00
61039;BME280;46919;45.816;3.104;2023-02-24T04:32:44;96978.72;;;5.38;100.00
61039;BME280;46919;45.816;3.104;2023-02-24T04:35:15;96971.88;;;5.42;100.00
61039;BME280;46919;45.816;3.104;2023-02-24T04:37:43;96975.38;;;5.42;100.00
61039;BME280;46919;45.816;3.104;2023-02-24T04:40:14;96984.25;;;5.43;100.00
61039;BME280;46919;45.816;3.104;2023-02-24T04:42:44;96971.06;;;5.41;100.00
61039;BME280;46919;45.816;3.104;2023-02-24T04:45:18;96975.38;;;5.42;100.00
61039;BME280;46919;45.816;3.104;2023-02-24T04:47:46;96989.19;;;5.46;100.00
61039;BME280;46919;45.816;3.104;2023-02-24T04:50:18;96982.13;;;5.52;100.00
61039;BME280;46919;45.816;3.104;2023-02-24T04:55:53;96972.03;;;5.47;100.00
61039;BME280;46919;45.816;3.104;2023-02-24T04:58:23;96965.44;;;5.50;100.00
61039;BME280;46919;45.816;3.104;2023-02-24T05:00:52;96961.94;;;5.49;100.00
61039;BME280;46919;45.816;3.104;2023-02-24T05:03:19;96959.91;;;5.44;100.00
61039;BME280;46919;45.816;3.104;2023-02-24T05:05:54;96958.31;;;5.37;100.00
61039;BME280;46919;45.816;3.104;2023-02-24T05:08:25;96953.38;;;5.34;100.00
61039;BME280;46919;45.816;3.104;2023-02-24T05:10:51;96953.78;;;5.31;100.00
61039;BME280;46919;45.816;3.104;2023-02-24T05:13:23;96962.84;;;5.30;100.00
61039;BME280;46919;45.816;3.104;2023-02-24T05:15:51;96947.25;;;5.26;100.00
61039;BME280;46919;45.816;3.104;2023-02-24T05:18:17;96944.56;;;5.26;100.00
61039;BME280;46919;45.816;3.104;2023-02-24T05:20:47;96942.31;;;5.23;100.00
61039;BME280;46919;45.816;3.104;2023-02-24T05:23:38;96948.50;;;5.17;100.00
61039;BME280;46919;45.816;3.104;2023-02-24T05:26:05;96945.84;;;5.17;100.00
61039;BME280;46919;45.816;3.104;2023-02-24T05:28:44;96954.69;;;5.18;100.00
61039;BME280;46919;45.816;3.104;2023-02-24T05:31:21;96947.66;;;5.17;100.00
61039;BME280;46919;45.816;3.104;2023-02-24T05:33:50;96944.81;;;5.12;100.00
61039;BME280;46919;45.816;3.104;2023-02-24T05:36:19;96945.25;;;5.08;100.00
61039;BME280;46919;45.816;3.104;2023-02-24T05:38:47;96945.03;;;5.10;100.00
61039;BME280;46919;45.816;3.104;2023-02-24T05:41:15;96937.81;;;5.11;100.00
61039;BME280;46919;45.816;3.104;2023-02-24T05:43:46;96926.88;;;5.12;100.00
61039;BME280;46919;45.816;3.104;2023-02-24T05:46:15;96928.97;;;5.10;100.00
61039;BME280;46919;45.816;3.104;2023-02-24T05:48:40;96928.38;;;5.08;100.00
61039;BME280;46919;45.816;3.104;2023-02-24T05:51:06;96916.00;;;5.07;100.00
61039;BME280;46919;45.816;3.104;2023-02-24T05:53:33;96915.78;;;5.08;100.00
61039;BME280;46919;45.816;3.104;2023-02-24T05:56:00;96916.59;;;5.09;100.00
61039;BME280;46919;45.816;3.104;2023-02-24T05:58:28;96918.47;;;5.08;100.00
61039;BME280;46919;45.816;3.104;2023-02-24T06:00:54;96915.56;;;5.10;100.00
61039;BME280;46919;45.816;3.104;2023-02-24T06:03:20;96924.22;;;5.12;100.00
61039;BME280;46919;45.816;3.104;2023-02-24T06:05:58;96924.63;;;5.16;100.00
61039;BME280;46919;45.816;3.104;2023-02-24T06:08:30;96922.94;;;5.21;100.00
61039;BME280;46919;45.816;3.104;2023-02-24T06:11:08;96923.72;;;5.29;100.00
61039;BME280;46919;45.816;3.104;2023-02-24T06:13:35;96925.53;;;5.35;100.00
61039;BME280;46919;45.816;3.104;2023-02-24T06:16:01;96911.72;;;5.38;100.00
61039;BME280;46919;45.816;3.104;2023-02-24T06:18:27;96906.75;;;5.41;100.00
61039;BME280;46919;45.816;3.104;2023-02-24T06:20:53;96915.97;;;5.45;100.00
61039;BME280;46919;45.816;3.104;2023-02-24T06:23:18;96912.66;;;5.50;100.00
61039;BME280;46919;45.816;3.104;2023-02-24T06:25:44;96906.25;;;5.51;100.00
61039;BME280;46919;45.816;3.104;2023-02-24T06:28:09;96907.91;;;5.52;100.00
61039;BME280;46919;45.816;3.104;2023-02-24T06:30:35;96897.97;;;5.59;100.00
61039;BME280;46919;45.816;3.104;2023-02-24T06:33:02;96895.72;;;5.56;100.00
61039;BME280;46919;45.816;3.104;2023-02-24T06:35:30;96886.81;;;5.62;100.00
61039;BME280;46919;45.816;3.104;2023-02-24T06:37:58;96890.53;;;5.61;100.00
61039;BME280;46919;45.816;3.104;2023-02-24T06:40:24;96887.22;;;5.59;100.00
61039;BME280;46919;45.816;3.104;2023-02-24T06:42:51;96891.56;;;5.60;100.00
61039;BME280;46919;45.816;3.104;2023-02-24T06:45:18;96891.13;;;5.63;100.00
61039;BME280;46919;45.816;3.104;2023-02-24T06:47:44;96896.28;;;5.65;100.00
61039;BME280;46919;45.816;3.104;2023-02-24T06:50:13;96904.69;;;5.69;100.00
61039;BME280;46919;45.816;3.104;2023-02-24T06:52:39;96895.63;;;5.70;100.00
61039;BME280;46919;45.816;3.104;2023-02-24T06:55:08;96889.22;;;5.71;100.00
61039;BME280;46919;45.816;3.104;2023-02-24T06:57:50;96894.13;;;5.74;100.00
61039;BME280;46919;45.816;3.104;2023-02-24T07:00:18;96895.34;;;5.78;100.00
61039;BME280;46919;45.816;3.104;2023-02-24T07:02:49;96899.84;;;5.84;100.00
61039;BME280;46919;45.816;3.104;2023-02-24T07:05:14;96897.97;;;5.85;100.00
61039;BME280;46919;45.816;3.104;2023-02-24T07:07:41;96903.50;;;5.90;100.00
61039;BME280;46919;45.816;3.104;2023-02-24T07:10:12;96908.41;;;5.93;100.00
61039;BME280;46919;45.816;3.104;2023-02-24T07:12:38;96909.44;;;5.98;100.00
61039;BME280;46919;45.816;3.104;2023-02-24T07:15:07;96907.13;;;6.02;100.00
61039;BME280;46919;45.816;3.104;2023-02-24T07:17:33;96903.78;;;6.07;100.00
61039;BME280;46919;45.816;3.104;2023-02-24T07:19:58;96902.31;;;6.11;100.00
61039;BME280;46919;45.816;3.104;2023-02-24T07:22:35;96899.22;;;6.14;100.00
61039;BME280;46919;45.816;3.104;2023-02-24T07:25:00;96898.97;;;6.15;100.00
61039;BME280;46919;45.816;3.104;2023-02-24T07:27:25;96890.88;;;6.22;100.00
61039;BME280;46919;45.816;3.104;2023-02-24T07:29:52;96891.00;;;6.27;100.00
61039;BME280;46919;45.816;3.104;2023-02-24T07:32:18;96895.50;;;6.33;100.00
61039;BME280;46919;45.816;3.104;2023-02-24T07:34:46;96897.75;;;6.37;100.00
61039;BME280;46919;45.816;3.104;2023-02-24T07:37:11;96890.50;;;6.37;100.00
61039;BME280;46919;45.816;3.104;2023-02-24T07:39:38;96895.66;;;6.39;100.00
61039;BME280;46919;45.816;3.104;2023-02-24T07:42:05;96900.56;;;6.42;100.00
61039;BME280;46919;45.816;3.104;2023-02-24T07:44:31;96895.34;;;6.47;100.00
61039;BME280;46919;45.816;3.104;2023-02-24T07:46:57;96894.53;;;6.46;100.00
61039;BME280;46919;45.816;3.104;2023-02-24T07:49:24;96896.19;;;6.47;100.00
61039;BME280;46919;45.816;3.104;2023-02-24T07:51:51;96888.94;;;6.48;100.00
61039;BME280;46919;45.816;3.104;2023-02-24T07:54:19;96885.81;;;6.51;100.00
61039;BME280;46919;45.816;3.104;2023-02-24T07:56:46;96897.13;;;6.53;100.00
61039;BME280;46919;45.816;3.104;2023-02-24T07:59:29;96898.34;;;6.57;100.00
61039;BME280;46919;45.816;3.104;2023-02-24T08:01:56;96896.47;;;6.58;100.00
61039;BME280;46919;45.816;3.104;2023-02-24T08:04:25;96892.91;;;6.64;100.00
61039;BME280;46919;45.816;3.104;2023-02-24T08:06:51;96892.09;;;6.63;100.00
61039;BME280;46919;45.816;3.104;2023-02-24T08:09:21;96884.63;;;6.65;100.00
61039;BME280;46919;45.816;3.104;2023-02-24T08:12:07;96881.94;;;6.65;100.00
61039;BME280;46919;45.816;3.104;2023-02-24T08:14:33;96878.22;;;6.66;100.00
61039;BME280;46919;45.816;3.104;2023-02-24T08:17:00;96886.28;;;6.66;100.00
61039;BME280;46919;45.816;3.104;2023-02-24T08:19:30;96891.41;;;6.68;100.00
61039;BME280;46919;45.816;3.104;2023-02-24T08:22:07;96892.97;;;6.76;100.00
61039;BME280;46919;45.816;3.104;2023-02-24T08:27:23;96880.41;;;6.88;100.00
61039;BME280;46919;45.816;3.104;2023-02-24T08:29:53;96881.16;;;6.95;100.00
61039;BME280;46919;45.816;3.104;2023-02-24T08:32:33;96875.91;;;7.00;100.00
61039;BME280;46919;45.816;3.104;2023-02-24T08:35:07;96879.13;;;7.09;100.00
61039;BME280;46919;45.816;3.104;2023-02-24T08:37:42;96877.97;;;7.17;100.00
61039;BME280;46919;45.816;3.104;2023-02-24T08:40:14;96876.81;;;7.24;100.00
61039;BME280;46919;45.816;3.104;2023-02-24T08:48:19;96871.75;;;7.35;100.00
61039;BME280;46919;45.816;3.104;2023-02-24T08:50:58;96873.75;;;7.39;100.00
61039;BME280;46919;45.816;3.104;2023-02-24T08:53:24;96865.81;;;7.44;100.00
61039;BME280;46919;45.816;3.104;2023-02-24T08:55:57;96870.13;;;7.46;100.00
61039;BME280;46919;45.816;3.104;2023-02-24T08:58:22;96865.34;;;7.48;100.00
61039;BME280;46919;45.816;3.104;2023-02-24T09:00:55;96861.16;;;7.52;100.00
61039;BME280;46919;45.816;3.104;2023-02-24T09:03:25;96861.16;;;7.52;100.00
61039;BME280;46919;45.816;3.104;2023-02-24T09:06:05;96868.50;;;7.56;100.00
61039;BME280;46919;45.816;3.104;2023-02-24T09:08:34;96855.44;;;7.60;100.00
61039;BME280;46919;45.816;3.104;2023-02-24T09:11:08;96856.38;;;7.66;100.00
61039;BME280;46919;45.816;3.104;2023-02-24T09:13:37;96853.81;;;7.71;100.00
61039;BME280;46919;45.816;3.104;2023-02-24T09:16:17;96851.25;;;7.76;100.00
61039;BME280;46919;45.816;3.104;2023-02-24T09:18:43;96853.34;;;7.86;100.00
61039;BME280;46919;45.816;3.104;2023-02-24T09:21:13;96854.66;;;7.95;100.00
61039;BME280;46919;45.816;3.104;2023-02-24T09:23:58;96861.19;;;7.99;100.00
61039;BME280;46919;45.816;3.104;2023-02-24T09:26:27;96861.78;;;8.01;100.00
61039;BME280;46919;45.816;3.104;2023-02-24T09:28:57;96861.91;;;8.06;100.00
61039;BME280;46919;45.816;3.104;2023-02-24T09:31:22;96863.66;;;8.12;100.00
61039;BME280;46919;45.816;3.104;2023-02-24T09:33:49;96859.44;;;8.16;100.00
61039;BME280;46919;45.816;3.104;2023-02-24T09:36:19;96861.19;;;8.23;100.00
61039;BME280;46919;45.816;3.104;2023-02-24T09:38:55;96863.53;;;8.31;100.00
61039;BME280;46919;45.816;3.104;2023-02-24T09:41:36;96853.47;;;8.38;100.00
61039;BME280;46919;45.816;3.104;2023-02-24T09:44:48;96857.13;;;8.44;100.00
61039;BME280;46919;45.816;3.104;2023-02-24T09:52:50;96854.72;;;8.59;100.00
61039;BME280;46919;45.816;3.104;2023-02-24T09:58:41;96857.19;;;8.61;100.00
61039;BME280;46919;45.816;3.104;2023-02-24T10:01:22;96863.66;;;8.60;100.00
61039;BME280;46919;45.816;3.104;2023-02-24T10:12:23;96868.56;;;8.39;96.59
61039;BME280;46919;45.816;3.104;2023-02-24T10:15:13;96878.28;;;8.28;93.85
61039;BME280;46919;45.816;3.104;2023-02-24T10:21:03;96874.66;;;8.34;91.21
61039;BME280;46919;45.816;3.104;2023-02-24T10:26:47;96874.66;;;8.46;87.46
61039;BME280;46919;45.816;3.104;2023-02-24T10:32:23;96877.13;;;8.36;85.48
61039;BME280;46919;45.816;3.104;2023-02-24T10:34:58;96872.78;;;8.35;86.17
61039;BME280;46919;45.816;3.104;2023-02-24T10:37:24;96871.72;;;8.36;82.81
61039;BME280;46919;45.816;3.104;2023-02-24T10:39:58;96874.91;;;8.33;81.15
61039;BME280;46919;45.816;3.104;2023-02-24T10:42:29;96875.38;;;8.30;80.96
61039;BME280;46919;45.816;3.104;2023-02-24T10:45:10;96874.66;;;8.23;79.35
61039;BME280;46919;45.816;3.104;2023-02-24T10:47:39;96884.38;;;8.24;81.02
61039;BME280;46919;45.816;3.104;2023-02-24T10:50:38;96897.72;;;8.19;85.79
61039;BME280;46919;45.816;3.104;2023-02-24T10:53:13;96891.03;;;8.09;90.88
61039;BME280;46919;45.816;3.104;2023-02-24T10:56:13;96893.72;;;8.09;93.91
61039;BME280;46919;45.816;3.104;2023-02-24T10:59:02;96890.09;;;8.04;96.28
61039;BME280;46919;45.816;3.104;2023-02-24T11:02:02;96886.44;;;7.86;99.56
61039;BME280;46919;45.816;3.104;2023-02-24T11:04:51;96884.09;;;7.78;100.00
61039;BME280;46919;45.816;3.104;2023-02-24T11:07:26;96895.22;;;7.82;100.00
61039;BME280;46919;45.816;3.104;2023-02-24T11:10:13;96912.53;;;7.86;100.00
61039;BME280;46919;45.816;3.104;2023-02-24T11:12:44;96904.34;;;7.92;100.00
61039;BME280;46919;45.816;3.104;2023-02-24T11:15:55;96906.81;;;7.94;95.67
61039;BME280;46919;45.816;3.104;2023-02-24T11:18:45;96900.50;;;8.00;100.00
61039;BME280;46919;45.816;3.104;2023-02-24T11:21:15;96908.22;;;8.08;100.00
61039;BME280;46919;45.816;3.104;2023-02-24T11:23:44;96910.69;;;8.10;100.00
61039;BME280;46919;45.816;3.104;2023-02-24T11:26:45;96903.31;;;8.05;100.00
61039;BME280;46919;45.816;3.104;2023-02-24T11:32:11;96898.19;;;8.39;99.79
61039;BME280;46919;45.816;3.104;2023-02-24T11:34:53;96885.28;;;8.41;100.00
61039;BME280;46919;45.816;3.104;2023-02-24T11:37:30;96893.13;;;8.43;100.00
61039;BME280;46919;45.816;3.104;2023-02-24T11:42:36;96876.06;;;8.49;100.00
61039;BME280;46919;45.816;3.104;2023-02-24T11:45:35;96854.91;;;8.81;100.00
61039;BME280;46919;45.816;3.104;2023-02-24T11:48:25;96862.34;;;9.32;100.00
61039;BME280;46919;45.816;3.104;2023-02-24T11:50:58;96870.63;;;9.59;100.00
61039;BME280;46919;45.816;3.104;2023-02-24T11:53:40;96858.16;;;9.70;100.00
61039;BME280;46919;45.816;3.104;2023-02-24T11:56:19;96849.38;;;9.63;100.00
61039;BME280;46919;45.816;3.104;2023-02-24T11:59:21;96851.22;;;9.74;100.00
61039;BME280;46919;45.816;3.104;2023-02-24T12:02:03;96845.22;;;10.06;100.00
61039;BME280;46919;45.816;3.104;2023-02-24T12:04:45;96854.78;;;10.13;100.00
61039;BME280;46919;45.816;3.104;2023-02-24T12:07:36;96852.25;;;10.07;100.00
61039;BME280;46919;45.816;3.104;2023-02-24T12:10:22;96854.47;;;9.93;100.00
61039;BME280;46919;45.816;3.104;2023-02-24T12:13:18;96849.06;;;9.76;100.00
61039;BME280;46919;45.816;3.104;2023-02-24T12:18:38;96843.19;;;9.62;100.00
61039;BME280;46919;45.816;3.104;2023-02-24T12:21:14;96848.16;;;9.70;100.00
61039;BME280;46919;45.816;3.104;2023-02-24T12:23:46;96847.19;;;9.76;99.47
61039;BME280;46919;45.816;3.104;2023-02-24T12:26:21;96851.09;;;9.69;98.55
61039;BME280;46919;45.816;3.104;2023-02-24T12:35:00;96835.34;;;9.94;94.55
61039;BME280;46919;45.816;3.104;2023-02-24T12:37:56;96859.78;;;10.05;96.27
61039;BME280;46919;45.816;3.104;2023-02-24T12:51:07;96858.97;;;10.04;98.68
61039;BME280;46919;45.816;3.104;2023-02-24T12:56:19;96863.47;;;9.98;100.00
61039;BME280;46919;45.816;3.104;2023-02-24T12:58:49;96856.34;;;9.92;100.00
61039;BME280;46919;45.816;3.104;2023-02-24T13:04:16;96861.75;;;9.92;100.00
61039;BME280;46919;45.816;3.104;2023-02-24T13:09:47;96847.81;;;10.01;100.00
61039;BME280;46919;45.816;3.104;2023-02-24T13:15:19;96855.97;;;10.23;100.00
61039;BME280;46919;45.816;3.104;2023-02-24T13:17:47;96850.94;;;10.26;100.00
61039;BME280;46919;45.816;3.104;2023-02-24T13:20:44;96839.28;;;10.26;96.93
61039;BME280;46919;45.816;3.104;2023-02-24T13:23:19;96846.84;;;10.41;100.00
61039;BME280;46919;45.816;3.104;2023-02-24T13:25:54;96841.34;;;10.36;100.00
61039;BME280;46919;45.816;3.104;2023-02-24T13:28:33;96839.16;;;10.32;100.00
61039;BME280;46919;45.816;3.104;2023-02-24T13:31:11;96839.78;;;10.40;100.00
61039;BME280;46919;45.816;3.104;2023-02-24T13:33:42;96833.50;;;10.56;100.00
61039;BME280;46919;45.816;3.104;2023-02-24T13:36:20;96836.41;;;10.72;100.00
61039;BME280;46919;45.816;3.104;2023-02-24T13:39:03;96835.59;;;10.93;100.00
61039;BME280;46919;45.816;3.104;2023-02-24T13:46:32;96834.84;;;10.98;100.00
61039;BME280;46919;45.816;3.104;2023-02-24T13:51:59;96828.31;;;10.72;100.00
61039;BME280;46919;45.816;3.104;2023-02-24T13:54:41;96820.69;;;10.68;100.00
61039;BME280;46919;45.816;3.104;2023-02-24T14:02:57;96811.09;;;11.32;99.25
61039;BME280;46919;45.816;3.104;2023-02-24T14:07:52;96816.16;;;11.51;98.97
61039;BME280;46919;45.816;3.104;2023-02-24T14:12:45;96801.97;;;12.08;97.11
61039;BME280;46919;45.816;3.104;2023-02-24T14:15:15;96807.13;;;12.10;94.45
61039;BME280;46919;45.816;3.104;2023-02-24T14:17:42;96800.13;;;12.09;93.55
61039;BME280;46919;45.816;3.104;2023-02-24T14:20:21;96804.88;;;12.39;90.44
61039;BME280;46919;45.816;3.104;2023-02-24T14:22:57;96797.66;;;12.55;87.53
61039;BME280;46919;45.816;3.104;2023-02-24T14:25:26;96795.81;;;12.76;87.41
61039;BME280;46919;45.816;3.104;2023-02-24T14:27:55;96794.53;;;12.94;86.21
61039;BME280;46919;45.816;3.104;2023-02-24T14:32:50;96796.94;;;12.85;85.17
61039;BME280;46919;45.816;3.104;2023-02-24T14:35:41;96786.63;;;12.87;81.85
61039;BME280;46919;45.816;3.104;2023-02-24T14:40:54;96780.16;;;12.89;83.55
61039;BME280;46919;45.816;3.104;2023-02-24T14:43:19;96778.81;;;13.01;81.76
61039;BME280;46919;45.816;3.104;2023-02-24T14:45:49;96781.78;;;12.90;78.03
61039;BME280;46919;45.816;3.104;2023-02-24T14:48:41;96772.00;;;12.83;77.36
61039;BME280;46919;45.816;3.104;2023-02-24T14:51:17;96768.66;;;12.61;80.43
61039;BME280;46919;45.816;3.104;2023-02-24T14:53:50;96773.00;;;12.67;78.41
61039;BME280;46919;45.816;3.104;2023-02-24T14:56:17;96774.72;;;12.78;78.56
61039;BME280;46919;45.816;3.104;2023-02-24T14:58:53;96763.34;;;12.86;73.76
61039;BME280;46919;45.816;3.104;2023-02-24T15:03:56;96780.63;;;12.70;75.45
61039;BME280;46919;45.816;3.104;2023-02-24T15:06:26;96773.66;;;12.26;76.54
61039;BME280;46919;45.816;3.104;2023-02-24T15:08:59;96774.31;;;11.96;77.59
61039;BME280;46919;45.816;3.104;2023-02-24T15:11:28;96775.56;;;11.83;80.26
61039;BME280;46919;45.816;3.104;2023-02-24T15:13:56;96778.19;;;12.10;79.15
61039;BME280;46919;45.816;3.104;2023-02-24T15:16:39;96774.56;;;12.47;76.80
61039;BME280;46919;45.816;3.104;2023-02-24T15:21:56;96764.72;;;13.10;74.10
61039;BME280;46919;45.816;3.104;2023-02-24T15:24:26;96766.09;;;13.12;70.45
61039;BME280;46919;45.816;3.104;2023-02-24T15:29:24;96764.88;;;12.67;62.06
61039;BME280;46919;45.816;3.104;2023-02-24T15:31:53;96764.84;;;12.52;59.56
61039;BME280;46919;45.816;3.104;2023-02-24T15:36:52;96755.53;;;12.32;55.81